createdAt,value
2022-08-28T00:00:07.114Z,0
2022-08-28T00:03:10.085Z,0
2022-08-28T00:06:07.627Z,0
2022-08-28T00:09:07.149Z,0
2022-08-28T00:12:07.137Z,0
2022-08-28T00:15:15.159Z,0
2022-08-28T00:18:07.299Z,0
2022-08-28T00:21:07.128Z,0
2022-08-28T00:24:16.124Z,0
2022-08-28T00:27:07.112Z,0
2022-08-28T00:30:07.107Z,0
2022-08-28T00:33:07.104Z,0
2022-08-28T00:36:07.033Z,0
2022-08-28T00:39:09.281Z,0
2022-08-28T00:42:07.552Z,0
2022-08-28T00:45:07.022Z,0
2022-08-28T00:48:08.384Z,0
2022-08-28T00:51:07.533Z,0
2022-08-28T00:54:13.924Z,0
2022-08-28T00:57:07.053Z,0
2022-08-28T01:00:07.070Z,0
2022-08-28T01:03:07.477Z,0
2022-08-28T01:06:07.275Z,0
2022-08-28T01:09:07.165Z,0
2022-08-28T01:12:07.225Z,0
2022-08-28T01:15:07.306Z,0
2022-08-28T01:18:15.611Z,0
2022-08-28T01:21:07.169Z,0
2022-08-28T01:24:07.228Z,0
2022-08-28T01:27:07.193Z,0
2022-08-28T01:30:07.188Z,0
2022-08-28T01:33:07.290Z,0
2022-08-28T01:36:07.103Z,0
2022-08-28T01:39:07.162Z,0
2022-08-28T01:42:07.087Z,0
2022-08-28T01:45:07.095Z,0
2022-08-28T01:48:07.200Z,0
2022-08-28T01:51:07.297Z,0
2022-08-28T01:54:08.265Z,0
2022-08-28T01:57:07.102Z,0
2022-08-28T02:00:07.719Z,0
2022-08-28T02:03:07.061Z,0
2022-08-28T02:06:07.075Z,0
2022-08-28T02:09:07.168Z,0
2022-08-28T02:12:07.204Z,0
2022-08-28T02:15:07.174Z,0
2022-08-28T02:18:07.033Z,0
2022-08-28T02:21:07.105Z,0
2022-08-28T02:24:07.073Z,0
2022-08-28T02:27:07.044Z,0
2022-08-28T02:30:07.106Z,0
2022-08-28T02:33:07.055Z,0
2022-08-28T02:36:07.078Z,0
2022-08-28T02:39:07.081Z,0
2022-08-28T02:42:07.095Z,0
2022-08-28T02:45:07.037Z,0
2022-08-28T02:48:17.845Z,0
2022-08-28T02:51:07.024Z,0
2022-08-28T02:54:07.160Z,0
2022-08-28T02:57:07.017Z,0
2022-08-28T03:00:07.091Z,0
2022-08-28T03:03:07.249Z,0
2022-08-28T03:06:07.156Z,0
2022-08-28T03:09:07.009Z,0
2022-08-28T03:12:07.631Z,0
2022-08-28T03:15:07.208Z,0
2022-08-28T03:18:13.669Z,0
2022-08-28T03:21:07.065Z,0
2022-08-28T03:24:07.074Z,0
2022-08-28T03:27:07.066Z,0
2022-08-28T03:30:07.098Z,0
2022-08-28T03:33:07.046Z,0
2022-08-28T03:36:11.083Z,0
2022-08-28T03:39:07.081Z,0
2022-08-28T03:42:07.512Z,0
2022-08-28T03:45:07.074Z,0
2022-08-28T03:48:07.406Z,3
2022-08-28T03:51:07.400Z,3
2022-08-28T03:54:07.052Z,3
2022-08-28T03:57:07.060Z,7
2022-08-28T04:00:07.154Z,10
2022-08-28T04:03:07.618Z,17
2022-08-28T04:06:07.057Z,30
2022-08-28T04:09:07.193Z,47
2022-08-28T04:12:07.066Z,67
2022-08-28T04:15:09.120Z,97
2022-08-28T04:18:07.146Z,143
2022-08-28T04:21:07.124Z,190
2022-08-28T04:24:12.016Z,267
2022-08-28T04:27:07.039Z,337
2022-08-28T04:30:09.707Z,427
2022-08-28T04:33:07.056Z,513
2022-08-28T04:36:07.127Z,660
2022-08-28T04:39:07.069Z,797
2022-08-28T04:42:07.037Z,877
2022-08-28T04:45:07.059Z,1080
2022-08-28T04:48:18.575Z,1223
2022-08-28T04:51:07.053Z,1353
2022-08-28T04:54:07.223Z,1610
2022-08-28T04:57:11.520Z,1677
2022-08-28T05:00:07.202Z,1830
2022-08-28T05:03:07.068Z,2013
2022-08-28T05:06:07.123Z,2537
2022-08-28T05:09:07.137Z,2773
2022-08-28T05:12:07.134Z,2973
2022-08-28T05:15:07.151Z,3050
2022-08-28T05:18:07.177Z,3163
2022-08-28T05:21:07.102Z,3363
2022-08-28T05:24:07.136Z,3680
2022-08-28T05:27:07.063Z,4067
2022-08-28T05:30:08.854Z,4797
2022-08-28T05:33:07.074Z,5253
2022-08-28T05:36:07.101Z,5587
2022-08-28T05:39:07.113Z,5607
2022-08-28T05:42:07.091Z,5560
2022-08-28T05:45:07.129Z,5620
2022-08-28T05:48:07.057Z,5793
2022-08-28T05:51:09.498Z,6890
2022-08-28T05:54:07.078Z,7133
2022-08-28T05:57:08.021Z,7637
2022-08-28T06:00:07.176Z,8043
2022-08-28T06:03:07.079Z,7470
2022-08-28T06:06:07.071Z,8107
2022-08-28T06:09:07.072Z,8213
2022-08-28T06:12:08.403Z,8633
2022-08-28T06:15:07.066Z,9450
2022-08-28T06:18:07.131Z,9240
2022-08-28T06:21:07.111Z,9977
2022-08-28T06:24:07.137Z,12730
2022-08-28T06:27:07.067Z,8783
2022-08-28T06:30:07.179Z,8423
2022-08-28T06:33:07.736Z,10620
2022-08-28T06:36:07.136Z,11093
2022-08-28T06:39:07.060Z,11717
2022-08-28T06:42:07.746Z,13687
2022-08-28T06:45:07.135Z,16533
2022-08-28T06:48:07.230Z,14043
2022-08-28T06:51:07.056Z,14027
2022-08-28T06:54:07.199Z,15083
2022-08-28T06:57:07.076Z,14090
2022-08-28T07:00:07.438Z,17510
2022-08-28T07:03:07.553Z,16473
2022-08-28T07:06:07.177Z,15113
2022-08-28T07:09:07.165Z,15390
2022-08-28T07:12:08.146Z,16323
2022-08-28T07:15:07.088Z,17720
2022-08-28T07:18:07.059Z,14360
2022-08-28T07:21:12.635Z,16693
2022-08-28T07:24:07.046Z,17130
2022-08-28T07:27:07.086Z,18483
2022-08-28T07:30:07.122Z,17887
2022-08-28T07:33:07.131Z,17223
2022-08-28T07:36:07.113Z,24527
2022-08-28T07:39:07.176Z,24093
2022-08-28T07:42:07.108Z,24587
2022-08-28T07:45:07.101Z,20083
2022-08-28T07:48:11.578Z,18500
2022-08-28T07:51:07.117Z,18477
2022-08-28T07:54:07.094Z,18157
2022-08-28T07:57:07.082Z,19300
2022-08-28T08:00:07.135Z,20563
2022-08-28T08:03:07.378Z,24210
2022-08-28T08:06:07.066Z,23723
2022-08-28T08:09:07.105Z,26447
2022-08-28T08:12:07.259Z,22340
2022-08-28T08:15:07.108Z,25687
2022-08-28T08:18:07.054Z,21330
2022-08-28T08:21:07.040Z,22050
2022-08-28T08:24:07.173Z,22957
2022-08-28T08:27:07.652Z,20193
2022-08-28T08:30:07.199Z,20020
2022-08-28T08:33:07.070Z,21837
2022-08-28T08:36:07.046Z,18823
2022-08-28T08:39:11.953Z,18357
2022-08-28T08:42:07.141Z,24500
2022-08-28T08:45:07.088Z,23757
2022-08-28T08:48:07.108Z,21680
2022-08-28T08:51:07.149Z,34223
2022-08-28T08:54:07.124Z,27950
2022-08-28T08:57:07.086Z,19667
2022-08-28T09:00:07.231Z,27433
2022-08-28T09:03:07.512Z,26897
2022-08-28T09:06:07.625Z,31863
2022-08-28T09:09:07.108Z,30143
2022-08-28T09:12:07.115Z,41013
2022-08-28T09:15:07.093Z,34747
2022-08-28T09:18:07.618Z,68680
2022-08-28T09:21:07.069Z,46300
2022-08-28T09:24:13.961Z,64803
2022-08-28T09:27:09.989Z,65687
2022-08-28T09:30:14.911Z,69790
2022-08-28T09:33:07.042Z,70607
2022-08-28T09:36:07.148Z,69027
2022-08-28T09:39:07.042Z,67400
2022-08-28T09:42:07.105Z,66933
2022-08-28T09:45:13.706Z,76760
2022-08-28T09:48:07.155Z,71380
2022-08-28T09:51:07.094Z,71903
2022-08-28T09:54:07.179Z,39320
2022-08-28T09:57:07.102Z,69800
2022-08-28T10:00:07.139Z,75790
2022-08-28T10:03:13.919Z,39120
2022-08-28T10:06:07.052Z,78100
2022-08-28T10:09:07.438Z,52600
2022-08-28T10:12:07.105Z,71487
2022-08-28T10:15:07.095Z,70737
2022-08-28T10:18:07.122Z,75283
2022-08-28T10:21:07.129Z,69753
2022-08-28T10:24:07.216Z,70477
2022-08-28T10:27:07.129Z,68893
2022-08-28T10:30:17.918Z,69503
2022-08-28T10:33:07.108Z,69177
2022-08-28T10:36:07.077Z,69903
2022-08-28T10:39:07.128Z,69460
2022-08-28T10:42:07.067Z,70437
2022-08-28T10:45:07.818Z,69763
2022-08-28T10:48:07.092Z,69090
2022-08-28T10:51:07.286Z,68777
2022-08-28T10:54:07.070Z,68100
2022-08-28T10:57:07.080Z,68593
2022-08-28T11:00:07.167Z,69150
2022-08-28T11:03:14.659Z,71240
2022-08-28T11:06:07.098Z,71473
2022-08-28T11:09:07.112Z,69630
2022-08-28T11:12:09.137Z,72297
2022-08-28T11:15:07.101Z,72533
2022-08-28T11:18:07.073Z,70780
2022-08-28T11:21:07.084Z,69970
2022-08-28T11:24:08.215Z,70450
2022-08-28T11:27:07.065Z,68940
2022-08-28T11:30:07.205Z,68593
2022-08-28T11:33:07.080Z,67680
2022-08-28T11:36:07.062Z,66970
2022-08-28T11:39:07.129Z,68250
2022-08-28T11:42:09.039Z,64560
2022-08-28T11:45:07.157Z,66577
2022-08-28T11:48:09.616Z,68270
2022-08-28T11:51:07.065Z,68210
2022-08-28T11:54:07.107Z,67517
2022-08-28T11:57:07.047Z,67437
2022-08-28T12:00:07.172Z,67973
2022-08-28T12:03:07.084Z,67637
2022-08-28T12:06:07.170Z,68127
2022-08-28T12:09:07.089Z,66567
2022-08-28T12:12:07.109Z,65173
2022-08-28T12:15:07.095Z,66453
2022-08-28T12:18:07.082Z,65953
2022-08-28T12:21:09.269Z,66077
2022-08-28T12:24:18.982Z,65943
2022-08-28T12:27:07.072Z,65660
2022-08-28T12:30:07.161Z,67250
2022-08-28T12:33:07.071Z,66700
2022-08-28T12:36:07.099Z,64447
2022-08-28T12:39:07.076Z,62907
2022-08-28T12:42:07.106Z,61660
2022-08-28T12:45:07.131Z,62257
2022-08-28T12:48:07.111Z,62720
2022-08-28T12:51:09.548Z,62417
2022-08-28T12:54:07.062Z,62030
2022-08-28T12:57:07.091Z,61840
2022-08-28T13:00:07.122Z,60643
2022-08-28T13:03:07.086Z,60240
2022-08-28T13:06:07.095Z,59563
2022-08-28T13:09:07.127Z,58883
2022-08-28T13:12:09.416Z,58410
2022-08-28T13:15:07.130Z,56887
2022-08-28T13:18:07.147Z,57793
2022-08-28T13:21:07.075Z,57353
2022-08-28T13:24:08.094Z,57287
2022-08-28T13:27:07.243Z,56367
2022-08-28T13:30:07.946Z,55813
2022-08-28T13:33:07.102Z,54953
2022-08-28T13:36:07.057Z,54480
2022-08-28T13:39:07.118Z,53960
2022-08-28T13:42:07.115Z,53730
2022-08-28T13:45:07.085Z,53510
2022-08-28T13:48:10.157Z,52880
2022-08-28T13:51:22.844Z,51967
2022-08-28T13:54:08.186Z,51460
2022-08-28T13:57:07.091Z,50617
2022-08-28T14:00:07.159Z,49653
2022-08-28T14:03:07.100Z,49487
2022-08-28T14:06:07.078Z,48690
2022-08-28T14:09:07.121Z,48297
2022-08-28T14:12:07.063Z,48097
2022-08-28T14:15:07.294Z,46947
2022-08-28T14:18:07.042Z,46787
2022-08-28T14:21:07.116Z,44920
2022-08-28T14:24:07.064Z,45280
2022-08-28T14:27:07.071Z,44593
2022-08-28T14:30:07.122Z,44247
2022-08-28T14:33:07.073Z,42473
2022-08-28T14:36:07.367Z,42067
2022-08-28T14:39:12.697Z,42433
2022-08-28T14:42:15.253Z,40780
2022-08-28T14:45:07.083Z,42357
2022-08-28T14:48:08.429Z,41937
2022-08-28T14:51:07.074Z,41570
2022-08-28T14:54:07.143Z,39687
2022-08-28T14:57:07.057Z,39930
2022-08-28T15:00:07.171Z,39150
2022-08-28T15:03:07.055Z,37820
2022-08-28T15:06:07.130Z,37093
2022-08-28T15:09:07.098Z,33567
2022-08-28T15:12:07.062Z,35287
2022-08-28T15:15:07.134Z,35090
2022-08-28T15:18:07.092Z,34667
2022-08-28T15:21:07.646Z,33493
2022-08-28T15:24:07.082Z,33570
2022-08-28T15:27:07.087Z,32263
2022-08-28T15:30:07.203Z,32200
2022-08-28T15:33:07.098Z,32180
2022-08-28T15:36:07.091Z,31413
2022-08-28T15:39:07.149Z,30893
2022-08-28T15:42:07.128Z,30013
2022-08-28T15:45:07.201Z,29367
2022-08-28T15:48:07.309Z,28913
2022-08-28T15:51:08.478Z,28690
2022-08-28T15:54:07.150Z,27570
2022-08-28T15:57:07.137Z,19030
2022-08-28T16:00:12.494Z,25323
2022-08-28T16:03:07.116Z,22740
2022-08-28T16:06:07.251Z,24210
2022-08-28T16:09:07.101Z,23817
2022-08-28T16:12:07.144Z,23543
2022-08-28T16:15:07.080Z,22967
2022-08-28T16:18:07.142Z,22530
2022-08-28T16:21:11.691Z,21787
2022-08-28T16:24:07.225Z,21287
2022-08-28T16:27:13.175Z,20590
2022-08-28T16:30:08.135Z,19960
2022-08-28T16:33:07.365Z,18467
2022-08-28T16:36:07.046Z,18663
2022-08-28T16:39:10.691Z,18200
2022-08-28T16:42:07.187Z,17623
2022-08-28T16:45:07.171Z,16857
2022-08-28T16:48:07.134Z,16147
2022-08-28T16:51:07.110Z,15523
2022-08-28T16:54:07.061Z,14983
2022-08-28T16:57:07.133Z,14200
2022-08-28T17:00:07.892Z,13607
2022-08-28T17:03:07.104Z,12847
2022-08-28T17:06:07.075Z,11793
2022-08-28T17:09:07.110Z,3627
2022-08-28T17:12:08.204Z,3353
2022-08-28T17:15:07.072Z,3187
2022-08-28T17:18:07.173Z,3037
2022-08-28T17:21:07.045Z,2907
2022-08-28T17:24:07.168Z,2767
2022-08-28T17:27:12.444Z,2633
2022-08-28T17:30:07.180Z,2503
2022-08-28T17:33:07.052Z,2363
2022-08-28T17:36:21.416Z,2223
2022-08-28T17:39:07.094Z,2077
2022-08-28T17:42:07.125Z,1920
2022-08-28T17:45:07.088Z,1763
2022-08-28T17:48:07.192Z,1610
2022-08-28T17:51:07.077Z,1453
2022-08-28T17:54:07.124Z,1293
2022-08-28T17:57:07.108Z,1137
2022-08-28T18:00:09.511Z,987
2022-08-28T18:03:07.026Z,847
2022-08-28T18:06:07.091Z,707
2022-08-28T18:09:07.200Z,580
2022-08-28T18:12:07.111Z,453
2022-08-28T18:15:07.111Z,353
2022-08-28T18:18:07.142Z,260
2022-08-28T18:21:07.037Z,190
2022-08-28T18:24:07.140Z,130
2022-08-28T18:27:07.328Z,87
2022-08-28T18:30:07.047Z,57
2022-08-28T18:33:07.123Z,33
2022-08-28T18:36:07.382Z,20
2022-08-28T18:39:07.560Z,13
2022-08-28T18:42:07.165Z,7
2022-08-28T18:45:07.136Z,3
2022-08-28T18:48:07.301Z,3
2022-08-28T18:51:07.119Z,3
2022-08-28T18:54:08.319Z,0
2022-08-28T18:57:13.788Z,0
2022-08-28T19:00:07.789Z,0
2022-08-28T19:03:08.262Z,0
2022-08-28T19:06:07.075Z,0
2022-08-28T19:09:07.089Z,0
2022-08-28T19:12:07.057Z,0
2022-08-28T19:15:07.142Z,0
2022-08-28T19:18:07.188Z,0
2022-08-28T19:21:07.037Z,0
2022-08-28T19:24:07.121Z,0
2022-08-28T19:27:07.127Z,0
2022-08-28T19:30:07.080Z,0
2022-08-28T19:33:07.115Z,0
2022-08-28T19:36:07.080Z,0
2022-08-28T19:39:07.139Z,0
2022-08-28T19:42:07.085Z,0
2022-08-28T19:45:07.193Z,0
2022-08-28T19:48:07.156Z,0
2022-08-28T19:51:07.050Z,0
2022-08-28T19:54:07.063Z,0
2022-08-28T19:57:07.120Z,0
2022-08-28T20:00:07.153Z,0
2022-08-28T20:03:07.426Z,0
2022-08-28T20:06:07.116Z,0
2022-08-28T20:09:13.232Z,0
2022-08-28T20:12:08.077Z,0
2022-08-28T20:15:15.916Z,0
2022-08-28T20:18:07.565Z,0
2022-08-28T20:21:07.085Z,0
2022-08-28T20:24:07.416Z,0
2022-08-28T20:27:07.155Z,0
2022-08-28T20:30:17.144Z,0
2022-08-28T20:33:07.230Z,0
2022-08-28T20:36:07.032Z,0
2022-08-28T20:39:07.214Z,0
2022-08-28T20:42:07.042Z,0
2022-08-28T20:45:07.429Z,0
2022-08-28T20:48:07.229Z,0
2022-08-28T20:51:07.049Z,0
2022-08-28T20:54:07.102Z,0
2022-08-28T20:57:08.201Z,0
2022-08-28T21:00:12.492Z,0
2022-08-28T21:03:07.071Z,0
2022-08-28T21:06:07.091Z,0
2022-08-28T21:09:07.087Z,0
2022-08-28T21:12:07.115Z,0
2022-08-28T21:15:07.460Z,0
2022-08-28T21:18:07.106Z,0
2022-08-28T21:21:07.082Z,0
2022-08-28T21:24:07.035Z,0
2022-08-28T21:27:11.707Z,0
2022-08-28T21:30:07.171Z,0
2022-08-28T21:33:07.115Z,0
2022-08-28T21:36:07.570Z,0
2022-08-28T21:39:07.131Z,0
2022-08-28T21:42:07.015Z,0
2022-08-28T21:45:13.387Z,0
2022-08-28T21:48:07.115Z,0
2022-08-28T21:51:09.618Z,0
2022-08-28T21:54:07.006Z,0
2022-08-28T21:57:07.056Z,0
2022-08-28T22:00:07.536Z,0
2022-08-28T22:03:07.079Z,0
2022-08-28T22:06:07.076Z,0
2022-08-28T22:09:07.118Z,0
2022-08-28T22:12:07.072Z,0
2022-08-28T22:15:07.133Z,0
2022-08-28T22:18:07.149Z,0
2022-08-28T22:21:06.979Z,0
2022-08-28T22:24:07.066Z,0
2022-08-28T22:27:07.065Z,0
2022-08-28T22:30:07.115Z,0
2022-08-28T22:33:06.994Z,0
2022-08-28T22:36:07.126Z,0
2022-08-28T22:39:07.130Z,0
2022-08-28T22:42:07.062Z,0
2022-08-28T22:45:07.021Z,0
2022-08-28T22:48:07.125Z,0
2022-08-28T22:51:07.112Z,0
2022-08-28T22:54:07.111Z,0
2022-08-28T22:57:07.043Z,0
2022-08-28T23:00:07.358Z,0
2022-08-28T23:03:07.392Z,0
2022-08-28T23:06:07.422Z,0
2022-08-28T23:09:07.156Z,0
2022-08-28T23:12:07.076Z,0
2022-08-28T23:15:07.072Z,0
2022-08-28T23:18:07.957Z,0
2022-08-28T23:21:07.818Z,0
2022-08-28T23:24:07.944Z,0
2022-08-28T23:27:42.606Z,0
2022-08-28T23:30:07.113Z,0
2022-08-28T23:33:15.649Z,0
2022-08-28T23:36:07.102Z,0
2022-08-28T23:39:07.533Z,0
2022-08-28T23:42:07.249Z,0
2022-08-28T23:45:09.447Z,0
2022-08-28T23:48:09.652Z,0
2022-08-28T23:51:08.753Z,0
2022-08-28T23:54:08.164Z,0
2022-08-28T23:57:09.628Z,0
